KVA weather

Alexander the Great International Airport
Kavala, Kavala, Greece

Public forecast

Using degrees Celsius for public forecast. Weather courtesy of forecast.io.

Current aviation weather report (METAR) for Alexander the Great International Airport

Retrieved 2020/08/06 06:20 UTC (31 minutes ago):

LGKV 060620Z 08012KT 9999 FEW030 25/17 Q1010

Aviation forecast (TAF) for Alexander the Great International Airport

Retrieved 2020/08/06 06:12 UTC (39 minutes ago):

TAF LGKV 060500Z 0606/0706 07010KT 9999 FEW025 BECMG 0610/0612 22010KT FEW025 SCT080 PROB30 TEMPO 0613/0620 7000 SHRA FEW020TCU SCT025 BKN080 BECMG 0618/0620 07012KT